Time;durP1;ratioP1;P1;durP2;ratioP2;P2;SDS_P1;SDS_P2;PMS_P1;PMS_P2;Temp;Humidity;BMP_temperature;BMP_pressure;BME280_temperature;BME280_humidity;BME280_pressure;Samples;Min_cycle;Max_cycle;Signal;HPM_P1;HPM_P2
2022/06/18 00:02:20;;;;;;;5.68;3.30;;;;;;;;;;4859651;29;20493;-57
2022/06/18 00:04:46;;;;;;;6.07;3.60;;;;;;;;;;4857915;29;20352;-58
2022/06/18 00:07:22;;;;;;;7.63;3.80;;;;;;;;;;4859774;29;20109;-56
2022/06/18 00:10:07;;;;;;;4.68;3.33;;;;;;;;;;4857162;29;20542;-57
2022/06/18 00:15:27;;;;;;;7.93;3.70;;;;;;;;;;4853583;29;20048;-58
2022/06/18 00:17:53;;;;;;;11.13;3.38;;;;;;;;;;4850689;29;20677;-56
2022/06/18 00:20:21;;;;;;;8.55;3.10;;;;;;;;;;4856422;29;20122;-55
2022/06/18 00:22:49;;;;;;;3.95;2.95;;;;;;;;;;4858670;29;20041;-57
2022/06/18 00:25:27;;;;;;;5.32;3.13;;;;;;;;;;4857487;29;20364;-58
2022/06/18 00:27:53;;;;;;;4.20;2.92;;;;;;;;;;4855199;29;20074;-55
2022/06/18 00:30:21;;;;;;;8.88;3.20;;;;;;;;;;4856643;29;20060;-56
2022/06/18 00:32:47;;;;;;;5.95;3.30;;;;;;;;;;4857917;29;20060;-57
2022/06/18 00:35:15;;;;;;;5.95;3.10;;;;;;;;;;4855589;29;20033;-57
2022/06/18 00:37:41;;;;;;;4.97;3.00;;;;;;;;;;4853811;29;20109;-56
2022/06/18 00:40:36;;;;;;;5.20;2.80;;;;;;;;;;4857949;29;20045;-55
2022/06/18 00:43:15;;;;;;;5.28;2.80;;;;;;;;;;4849976;29;20049;-56
2022/06/18 00:45:40;;;;;;;3.70;2.80;;;;;;;;;;4855663;29;20050;-56
2022/06/18 00:48:09;;;;;;;4.63;2.85;;;;;;;;;;4857697;29;20044;-56
2022/06/18 00:50:48;;;;;;;5.43;3.17;;;;;;;;;;4857929;29;20041;-58
2022/06/18 00:53:24;;;;;;;7.18;3.10;;;;;;;;;;4856914;29;20037;-57
2022/06/18 00:55:59;;;;;;;10.00;2.80;;;;;;;;;;4857321;29;20336;-54
2022/06/18 00:58:33;;;;;;;4.80;2.70;;;;;;;;;;4856812;29;20444;-53
2022/06/18 01:01:00;;;;;;;7.97;2.80;;;;;;;;;;4855707;29;20064;-56
2022/06/18 01:03:34;;;;;;;5.35;2.80;;;;;;;;;;4857559;29;20482;-55
2022/06/18 01:06:14;;;;;;;4.40;2.90;;;;;;;;;;4860246;29;20041;-56
2022/06/18 01:08:40;;;;;;;4.32;2.83;;;;;;;;;;4859294;29;20038;-57
2022/06/18 01:11:16;;;;;;;6.35;2.90;;;;;;;;;;4862357;29;20033;-57
2022/06/18 01:13:42;;;;;;;5.63;2.83;;;;;;;;;;4859123;29;20033;-56
2022/06/18 01:16:09;;;;;;;8.38;2.70;;;;;;;;;;4861282;29;20044;-56
2022/06/18 01:18:37;;;;;;;5.18;2.88;;;;;;;;;;4855250;29;20064;-56
2022/06/18 01:21:14;;;;;;;5.80;2.75;;;;;;;;;;4860630;29;20033;-57
2022/06/18 01:23:49;;;;;;;5.63;2.88;;;;;;;;;;4859610;29;20105;-58
2022/06/18 01:26:15;;;;;;;4.15;2.90;;;;;;;;;;4859736;29;20037;-56
2022/06/18 01:28:41;;;;;;;8.38;3.17;;;;;;;;;;4859423;29;20093;-57
2022/06/18 01:31:07;;;;;;;4.38;2.90;;;;;;;;;;4861210;29;20375;-55
2022/06/18 01:33:33;;;;;;;5.18;2.70;;;;;;;;;;4858479;29;20037;-57
2022/06/18 01:36:02;;;;;;;9.23;2.95;;;;;;;;;;4859369;29;20097;-54
2022/06/18 01:38:28;;;;;;;6.40;2.97;;;;;;;;;;4858624;29;20120;-55
2022/06/18 01:43:59;;;;;;;6.47;2.65;;;;;;;;;;4860292;29;20517;-53
2022/06/18 01:46:26;;;;;;;5.20;2.70;;;;;;;;;;4860465;29;20056;-56
2022/06/18 01:48:54;;;;;;;8.95;2.90;;;;;;;;;;4857657;29;20037;-56
2022/06/18 01:51:38;;;;;;;8.65;2.80;;;;;;;;;;4861071;29;20108;-55
2022/06/18 01:54:12;;;;;;;5.35;2.70;;;;;;;;;;4859411;29;20447;-56
2022/06/18 01:56:45;;;;;;;5.28;2.70;;;;;;;;;;4861789;29;20510;-55
2022/06/18 01:59:17;;;;;;;5.40;3.00;;;;;;;;;;4859978;29;20423;-57
2022/06/18 02:01:46;;;;;;;5.75;3.17;;;;;;;;;;4860127;29;20045;-58
2022/06/18 02:04:13;;;;;;;8.85;3.00;;;;;;;;;;4859459;29;20070;-54
2022/06/18 02:06:39;;;;;;;5.95;3.00;;;;;;;;;;4861829;29;20092;-58
2022/06/18 02:09:13;;;;;;;4.43;2.95;;;;;;;;;;4859806;29;20487;-56
2022/06/18 02:11:39;;;;;;;6.88;3.03;;;;;;;;;;4860917;29;20065;-56
2022/06/18 02:14:09;;;;;;;6.65;3.08;;;;;;;;;;4860692;29;20040;-57
2022/06/18 02:16:41;;;;;;;7.32;3.38;;;;;;;;;;4856873;29;20483;-56
2022/06/18 02:19:08;;;;;;;5.93;3.25;;;;;;;;;;4860241;29;20049;-55
2022/06/18 02:21:47;;;;;;;5.63;3.03;;;;;;;;;;4859668;29;20057;-55
2022/06/18 02:24:14;;;;;;;5.93;3.22;;;;;;;;;;4861215;29;20368;-53
2022/06/18 02:26:41;;;;;;;5.70;3.20;;;;;;;;;;4857411;29;20076;-57
2022/06/18 02:29:16;;;;;;;6.03;3.10;;;;;;;;;;4858694;29;20120;-54
2022/06/18 02:31:45;;;;;;;6.50;3.15;;;;;;;;;;4860926;29;20119;-57
2022/06/18 02:34:15;;;;;;;6.63;2.85;;;;;;;;;;4858673;29;20514;-56
2022/06/18 02:36:43;;;;;;;8.30;3.00;;;;;;;;;;4860869;29;20036;-54
2022/06/18 02:39:36;;;;;;;7.60;3.00;;;;;;;;;;4859783;29;20049;-55
2022/06/18 02:42:17;;;;;;;6.90;2.88;;;;;;;;;;4841646;29;20030;-54
2022/06/18 02:44:45;;;;;;;6.72;3.17;;;;;;;;;;4847496;29;20044;-58
2022/06/18 02:47:12;;;;;;;5.60;2.83;;;;;;;;;;4859074;29;20037;-54
2022/06/18 02:49:49;;;;;;;9.70;3.03;;;;;;;;;;4860851;29;20033;-56
2022/06/18 02:52:14;;;;;;;5.57;2.92;;;;;;;;;;4857979;29;20086;-54
2022/06/18 02:54:40;;;;;;;4.55;3.03;;;;;;;;;;4861045;29;20384;-54
2022/06/18 02:57:15;;;;;;;4.97;3.10;;;;;;;;;;4859322;29;20049;-55
2022/06/18 02:59:41;;;;;;;7.65;2.90;;;;;;;;;;4859662;29;20049;-55
2022/06/18 03:02:06;;;;;;;6.10;2.95;;;;;;;;;;4857001;29;20478;-57
2022/06/18 03:04:31;;;;;;;4.97;2.88;;;;;;;;;;4859848;29;20587;-54
2022/06/18 03:06:57;;;;;;;5.70;2.90;;;;;;;;;;4859773;29;20049;-56
2022/06/18 03:09:22;;;;;;;6.18;3.08;;;;;;;;;;4859454;29;20025;-55
2022/06/18 03:14:31;;;;;;;8.40;3.10;;;;;;;;;;4856876;29;20048;-57
2022/06/18 03:16:57;;;;;;;6.03;3.00;;;;;;;;;;4859127;29;20033;-55
2022/06/18 03:19:29;;;;;;;5.68;2.92;;;;;;;;;;4859187;29;20044;-56
2022/06/18 03:21:59;;;;;;;9.50;2.85;;;;;;;;;;4857880;29;20072;-58
2022/06/18 03:24:24;;;;;;;5.30;3.13;;;;;;;;;;4857568;29;20029;-54
2022/06/18 03:26:51;;;;;;;4.97;2.90;;;;;;;;;;4857489;29;20064;-57
2022/06/18 03:29:17;;;;;;;4.13;3.10;;;;;;;;;;4841513;29;20034;-56
2022/06/18 03:31:42;;;;;;;5.53;3.10;;;;;;;;;;4841337;29;20387;-58
2022/06/18 03:34:07;;;;;;;5.93;3.20;;;;;;;;;;4855046;29;20045;-56
2022/06/18 03:36:33;;;;;;;5.40;2.90;;;;;;;;;;4857841;29;20037;-56
2022/06/18 03:38:58;;;;;;;5.30;2.95;;;;;;;;;;4858916;29;20459;-56
2022/06/18 03:41:24;;;;;;;6.22;2.80;;;;;;;;;;4858796;29;20498;-56
2022/06/18 03:43:52;;;;;;;4.25;2.88;;;;;;;;;;4856533;29;20041;-57
2022/06/18 03:46:18;;;;;;;3.83;2.85;;;;;;;;;;4859217;29;20136;-56
2022/06/18 03:49:03;;;;;;;6.25;2.92;;;;;;;;;;4854177;29;20029;-54
2022/06/18 03:51:29;;;;;;;9.45;3.17;;;;;;;;;;4859632;29;20037;-55
2022/06/18 03:53:55;;;;;;;6.63;3.10;;;;;;;;;;4854098;29;20034;-56
2022/06/18 03:56:25;;;;;;;6.15;2.90;;;;;;;;;;4858770;29;20457;-56
2022/06/18 03:58:52;;;;;;;8.07;3.13;;;;;;;;;;4858986;29;20045;-56
2022/06/18 04:01:21;;;;;;;8.00;3.17;;;;;;;;;;4858166;29;20081;-54
2022/06/18 04:03:46;;;;;;;8.70;3.13;;;;;;;;;;4857427;29;20044;-57
2022/06/18 04:06:14;;;;;;;6.88;3.25;;;;;;;;;;4855220;29;20037;-57
2022/06/18 04:08:41;;;;;;;9.75;3.00;;;;;;;;;;4856656;29;20097;-55
2022/06/18 04:11:08;;;;;;;5.15;2.83;;;;;;;;;;4857153;29;20042;-54
2022/06/18 04:13:34;;;;;;;4.13;2.85;;;;;;;;;;4857782;29;20041;-56
2022/06/18 04:15:59;;;;;;;9.95;3.30;;;;;;;;;;4857089;29;20044;-55
2022/06/18 04:18:24;;;;;;;5.35;2.97;;;;;;;;;;4847022;29;20065;-56
2022/06/18 04:20:50;;;;;;;8.85;3.10;;;;;;;;;;4857049;29;20041;-57
2022/06/18 04:23:15;;;;;;;7.50;3.03;;;;;;;;;;4857121;29;20372;-56
2022/06/18 04:25:42;;;;;;;7.45;3.10;;;;;;;;;;4859495;29;20436;-57
2022/06/18 04:28:10;;;;;;;6.00;3.20;;;;;;;;;;4855654;29;20117;-54
2022/06/18 04:30:35;;;;;;;6.95;3.03;;;;;;;;;;4858896;29;20097;-55
2022/06/18 04:33:01;;;;;;;8.70;3.28;;;;;;;;;;4857093;29;20436;-53
2022/06/18 04:35:26;;;;;;;10.02;3.20;;;;;;;;;;4856491;29;20049;-57
2022/06/18 04:37:52;;;;;;;5.47;3.58;;;;;;;;;;4856243;29;20033;-59
2022/06/18 04:40:22;;;;;;;7.45;3.22;;;;;;;;;;4860251;29;20036;-58
2022/06/18 04:42:47;;;;;;;9.13;3.30;;;;;;;;;;4863458;29;20037;-57
2022/06/18 04:45:13;;;;;;;6.60;3.20;;;;;;;;;;4859756;29;20399;-57
2022/06/18 04:47:40;;;;;;;7.30;3.30;;;;;;;;;;4863077;29;20162;-57
2022/06/18 04:50:07;;;;;;;6.53;3.53;;;;;;;;;;4864688;29;20048;-56
2022/06/18 04:52:32;;;;;;;6.05;3.22;;;;;;;;;;4860185;29;20037;-57
2022/06/18 04:54:58;;;;;;;7.05;3.40;;;;;;;;;;4861300;29;20497;-53
2022/06/18 04:57:23;;;;;;;5.43;3.20;;;;;;;;;;4862898;29;20116;-55
2022/06/18 04:59:48;;;;;;;8.82;3.60;;;;;;;;;;4859586;29;20033;-53
2022/06/18 05:02:26;;;;;;;6.53;3.60;;;;;;;;;;4861532;29;20517;-53
2022/06/18 05:04:54;;;;;;;8.05;3.30;;;;;;;;;;4859842;29;20047;-59
2022/06/18 05:07:19;;;;;;;5.97;3.17;;;;;;;;;;4860475;29;20375;-55
2022/06/18 05:09:45;;;;;;;6.40;3.60;;;;;;;;;;4861946;29;20119;-57
2022/06/18 05:12:12;;;;;;;5.72;3.33;;;;;;;;;;4845121;29;20691;-56
2022/06/18 05:14:38;;;;;;;9.07;3.40;;;;;;;;;;4862107;29;20029;-56
2022/06/18 05:17:06;;;;;;;8.70;3.30;;;;;;;;;;4861548;29;20080;-56
2022/06/18 05:19:33;;;;;;;5.25;3.45;;;;;;;;;;4857430;29;20037;-57
2022/06/18 05:22:00;;;;;;;8.23;3.40;;;;;;;;;;4860890;29;20380;-57
2022/06/18 05:24:25;;;;;;;9.02;3.63;;;;;;;;;;4859996;29;20071;-56
2022/06/18 05:26:55;;;;;;;9.65;3.70;;;;;;;;;;4862053;29;20073;-58
2022/06/18 05:29:21;;;;;;;8.70;3.67;;;;;;;;;;4861140;29;20037;-58
2022/06/18 05:31:46;;;;;;;8.15;3.90;;;;;;;;;;4861514;29;20034;-55
2022/06/18 05:34:12;;;;;;;8.48;3.80;;;;;;;;;;4859122;29;20124;-57
2022/06/18 05:36:37;;;;;;;6.57;3.95;;;;;;;;;;4862475;29;20097;-57
2022/06/18 05:39:05;;;;;;;7.95;4.22;;;;;;;;;;4859215;29;20032;-55
2022/06/18 05:41:30;;;;;;;7.13;3.67;;;;;;;;;;4861384;29;20410;-55
2022/06/18 05:43:56;;;;;;;7.60;3.88;;;;;;;;;;4860803;29;20045;-58
2022/06/18 05:46:22;;;;;;;7.30;3.83;;;;;;;;;;4861619;29;20070;-56
2022/06/18 05:48:47;;;;;;;5.78;3.50;;;;;;;;;;4860221;29;20451;-53
2022/06/18 05:51:12;;;;;;;6.63;3.97;;;;;;;;;;4859734;29;20044;-58
2022/06/18 05:53:38;;;;;;;8.32;3.50;;;;;;;;;;4859535;29;20068;-54
2022/06/18 05:56:03;;;;;;;6.00;3.63;;;;;;;;;;4857223;29;20037;-57
2022/06/18 05:58:29;;;;;;;6.95;3.55;;;;;;;;;;4854358;29;20080;-57
2022/06/18 06:00:54;;;;;;;7.22;3.72;;;;;;;;;;4860657;29;20964;-59
2022/06/18 06:03:20;;;;;;;10.95;3.70;;;;;;;;;;4856594;29;20041;-58
2022/06/18 06:05:46;;;;;;;8.98;3.50;;;;;;;;;;4839077;29;20049;-58
2022/06/18 06:08:13;;;;;;;7.32;3.55;;;;;;;;;;4858443;29;20056;-57
2022/06/18 06:13:24;;;;;;;7.35;3.50;;;;;;;;;;4860121;29;20045;-58
2022/06/18 06:15:50;;;;;;;15.70;3.97;;;;;;;;;;4861691;29;20387;-57
2022/06/18 06:18:17;;;;;;;6.32;3.30;;;;;;;;;;4857139;29;20052;-54
2022/06/18 06:20:46;;;;;;;6.93;3.55;;;;;;;;;;4860518;29;20029;-51
2022/06/18 06:23:13;;;;;;;8.45;3.50;;;;;;;;;;4855691;29;20455;-54
2022/06/18 06:25:40;;;;;;;6.38;3.60;;;;;;;;;;4861476;29;20049;-56
2022/06/18 06:28:09;;;;;;;8.27;3.50;;;;;;;;;;4856549;29;20399;-55
2022/06/18 06:30:35;;;;;;;7.72;3.92;;;;;;;;;;4860254;29;20045;-55
2022/06/18 06:33:00;;;;;;;11.38;3.75;;;;;;;;;;4857961;29;20030;-65
2022/06/18 06:35:26;;;;;;;7.97;3.97;;;;;;;;;;4860585;29;20044;-64
2022/06/18 06:37:51;;;;;;;8.27;3.88;;;;;;;;;;4860848;29;20033;-64
2022/06/18 06:40:17;;;;;;;9.68;3.90;;;;;;;;;;4858575;29;20128;-64
2022/06/18 06:42:46;;;;;;;7.35;3.88;;;;;;;;;;4859800;29;20033;-65
2022/06/18 06:45:17;;;;;;;8.15;3.85;;;;;;;;;;4859362;29;20112;-64
2022/06/18 06:47:44;;;;;;;8.02;3.92;;;;;;;;;;4860036;29;20497;-64
2022/06/18 06:50:10;;;;;;;9.82;3.65;;;;;;;;;;4856747;29;20504;-64
2022/06/18 06:52:36;;;;;;;10.38;3.78;;;;;;;;;;4860753;29;20098;-65
2022/06/18 06:57:46;;;;;;;7.93;4.10;;;;;;;;;;4859670;29;20041;-64
2022/06/18 07:00:12;;;;;;;8.23;4.10;;;;;;;;;;4859920;29;20042;-64
2022/06/18 07:02:38;;;;;;;8.15;3.53;;;;;;;;;;4858569;29;20729;-65
2022/06/18 07:05:04;;;;;;;9.93;3.88;;;;;;;;;;4859155;29;20034;-64
2022/06/18 07:07:30;;;;;;;9.25;4.20;;;;;;;;;;4859491;29;20033;-64
2022/06/18 07:09:56;;;;;;;9.68;3.67;;;;;;;;;;4860639;29;20033;-65
2022/06/18 07:12:21;;;;;;;10.60;3.90;;;;;;;;;;4855771;29;20044;-65
2022/06/18 07:14:46;;;;;;;8.07;4.00;;;;;;;;;;4859876;29;20118;-65
2022/06/18 07:17:17;;;;;;;10.68;4.10;;;;;;;;;;4859674;29;20033;-65
2022/06/18 07:19:42;;;;;;;;;;;;;;;;;;4859554;29;20030;-65
2022/06/18 07:22:10;;;;;;;10.50;4.45;;;;;;;;;;4857004;29;20411;-65
2022/06/18 07:24:36;;;;;;;11.93;4.45;;;;;;;;;;4860073;29;20045;-65
2022/06/18 07:27:03;;;;;;;7.78;3.88;;;;;;;;;;4842933;29;20060;-65
2022/06/18 07:29:28;;;;;;;10.25;4.20;;;;;;;;;;4860466;29;20041;-65
2022/06/18 07:31:53;;;;;;;13.77;4.30;;;;;;;;;;4860049;29;20525;-65
2022/06/18 07:34:19;;;;;;;9.73;4.35;;;;;;;;;;4857810;29;20105;-65
2022/06/18 07:36:44;;;;;;;14.52;4.63;;;;;;;;;;4859112;29;20057;-65
2022/06/18 07:39:10;;;;;;;12.70;4.60;;;;;;;;;;4859575;29;20041;-65
2022/06/18 07:41:42;;;;;;;10.60;4.15;;;;;;;;;;4859197;29;20097;-65
2022/06/18 07:44:07;;;;;;;14.93;4.40;;;;;;;;;;4858065;29;20383;-65
2022/06/18 07:46:33;;;;;;;10.68;4.32;;;;;;;;;;4860060;29;20033;-65
2022/06/18 07:48:58;;;;;;;12.20;4.70;;;;;;;;;;4859816;29;20041;-65
2022/06/18 07:51:26;;;;;;;14.68;4.60;;;;;;;;;;4858249;29;20042;-65
2022/06/18 07:53:52;;;;;;;11.57;4.18;;;;;;;;;;4858630;29;20109;-66
2022/06/18 07:56:17;;;;;;;12.32;4.40;;;;;;;;;;4858905;29;20463;-65
2022/06/18 07:58:43;;;;;;;11.38;4.45;;;;;;;;;;4860035;29;20371;-65
2022/06/18 08:01:08;;;;;;;9.63;3.95;;;;;;;;;;4857758;29;20102;-65
2022/06/18 08:03:35;;;;;;;13.55;4.68;;;;;;;;;;4843256;29;20055;-65
2022/06/18 08:06:01;;;;;;;9.93;3.95;;;;;;;;;;4859517;29;20124;-64
2022/06/18 08:08:27;;;;;;;10.50;4.43;;;;;;;;;;4858325;29;20044;-66
2022/06/18 08:10:53;;;;;;;10.00;4.00;;;;;;;;;;4858829;29;20034;-65
2022/06/18 08:13:20;;;;;;;9.40;4.38;;;;;;;;;;4857193;29;20033;-66
2022/06/18 08:15:45;;;;;;;8.68;4.13;;;;;;;;;;4857092;29;20041;-66
2022/06/18 08:18:10;;;;;;;9.40;4.20;;;;;;;;;;4857927;29;20093;-66
2022/06/18 08:20:36;;;;;;;7.82;3.78;;;;;;;;;;4858855;29;20093;-66
2022/06/18 08:23:04;;;;;;;12.20;4.53;;;;;;;;;;4859297;29;20029;-66
2022/06/18 08:25:31;;;;;;;10.77;4.00;;;;;;;;;;4859302;29;20041;-66
2022/06/18 08:28:00;;;;;;;7.97;4.18;;;;;;;;;;4858769;29;20037;-67
2022/06/18 08:30:26;;;;;;;11.48;4.20;;;;;;;;;;4858735;29;20037;-65
2022/06/18 08:32:52;;;;;;;11.05;4.05;;;;;;;;;;4859551;29;20034;-66
2022/06/18 08:35:17;;;;;;;8.02;4.13;;;;;;;;;;4857737;29;20029;-66
2022/06/18 08:37:43;;;;;;;9.05;4.30;;;;;;;;;;4859355;29;20038;-66
2022/06/18 08:40:34;;;;;;;8.98;4.03;;;;;;;;;;4858723;29;20041;-66
2022/06/18 08:43:14;;;;;;;13.80;4.22;;;;;;;;;;4859426;29;20038;-66
2022/06/18 08:45:47;;;;;;;9.10;4.20;;;;;;;;;;4858691;29;20042;-66
2022/06/18 08:48:15;;;;;;;15.15;4.53;;;;;;;;;;4853932;29;20386;-66
2022/06/18 08:50:56;;;;;;;12.20;4.30;;;;;;;;;;4856983;29;20482;-65
2022/06/18 08:53:37;;;;;;;7.78;3.78;;;;;;;;;;4841755;29;20041;-66
2022/06/18 08:56:07;;;;;;;8.75;3.95;;;;;;;;;;4858742;29;20029;-66
2022/06/18 08:58:51;;;;;;;10.90;4.25;;;;;;;;;;4859041;29;20037;-66
2022/06/18 09:01:44;;;;;;;11.98;4.40;;;;;;;;;;4858302;29;20049;-66
2022/06/18 09:04:28;;;;;;;9.98;4.18;;;;;;;;;;4857803;29;20048;-65
2022/06/18 09:07:12;;;;;;;13.43;4.30;;;;;;;;;;4859163;29;20478;-66
2022/06/18 09:09:48;;;;;;;8.75;4.05;;;;;;;;;;4859574;29;20033;-66
2022/06/18 09:12:22;;;;;;;12.27;4.38;;;;;;;;;;4857383;29;20057;-64
2022/06/18 09:15:09;;;;;;;12.90;4.20;;;;;;;;;;4859209;29;20053;-66
2022/06/18 09:17:46;;;;;;;10.50;4.63;;;;;;;;;;4857402;29;20064;-66
2022/06/18 09:20:23;;;;;;;12.00;4.43;;;;;;;;;;4853039;29;20037;-65
2022/06/18 09:22:54;;;;;;;11.02;4.00;;;;;;;;;;4851086;29;20505;-66
2022/06/18 09:25:26;;;;;;;12.73;4.60;;;;;;;;;;4858623;29;20483;-65
2022/06/18 09:28:07;;;;;;;9.98;4.10;;;;;;;;;;4861671;29;20041;-66
2022/06/18 09:30:35;;;;;;;13.20;5.15;;;;;;;;;;4861958;29;20038;-66
2022/06/18 09:33:39;;;;;;;10.55;4.35;;;;;;;;;;4861462;29;20065;-66
2022/06/18 09:36:13;;;;;;;14.15;4.78;;;;;;;;;;4860890;29;20037;-66
2022/06/18 09:38:43;;;;;;;13.80;4.75;;;;;;;;;;4861577;29;20029;-65
2022/06/18 09:41:15;;;;;;;16.30;4.75;;;;;;;;;;4859681;29;20124;-65
2022/06/18 09:44:16;;;;;;;15.82;4.95;;;;;;;;;;4857131;29;20045;-65
2022/06/18 09:47:09;;;;;;;11.35;4.95;;;;;;;;;;4843870;29;20086;-66
2022/06/18 09:49:35;;;;;;;13.35;4.75;;;;;;;;;;4846813;29;20041;-66
2022/06/18 09:52:11;;;;;;;16.80;4.97;;;;;;;;;;4859164;29;20029;-66
2022/06/18 09:54:42;;;;;;;11.20;4.97;;;;;;;;;;4858251;29;20045;-67
2022/06/18 09:57:08;;;;;;;12.15;4.90;;;;;;;;;;4860307;29;20117;-60
2022/06/18 09:59:39;;;;;;;14.73;4.80;;;;;;;;;;4856998;29;20058;-60
2022/06/18 10:02:18;;;;;;;18.50;5.30;;;;;;;;;;4861380;29;20053;-59
2022/06/18 10:07:32;;;;;;;15.23;5.38;;;;;;;;;;4859820;29;20052;-60
2022/06/18 10:10:04;;;;;;;16.38;5.00;;;;;;;;;;4861195;29;20038;-60
2022/06/18 10:12:38;;;;;;;13.55;5.20;;;;;;;;;;4860336;29;20718;-59
2022/06/18 10:15:08;;;;;;;14.70;5.13;;;;;;;;;;4860379;29;20033;-59
2022/06/18 10:17:45;;;;;;;13.82;5.20;;;;;;;;;;4860175;29;20090;-60
2022/06/18 10:20:18;;;;;;;14.40;4.90;;;;;;;;;;4841777;29;20041;-60
2022/06/18 10:23:03;;;;;;;12.90;5.40;;;;;;;;;;4860062;29;20033;-60
2022/06/18 10:25:44;;;;;;;18.58;5.78;;;;;;;;;;4860286;29;20041;-59
2022/06/18 10:28:12;;;;;;;12.65;5.20;;;;;;;;;;4842398;29;20049;-59
2022/06/18 10:30:41;;;;;;;17.95;5.28;;;;;;;;;;4846479;29;20038;-59
2022/06/18 10:33:27;;;;;;;10.75;4.65;;;;;;;;;;4861225;29;20124;-59
2022/06/18 10:36:15;;;;;;;13.02;5.32;;;;;;;;;;4849465;29;20497;-59
2022/06/18 10:38:40;;;;;;;13.02;5.05;;;;;;;;;;4859779;29;20037;-59
2022/06/18 10:41:13;;;;;;;13.20;4.85;;;;;;;;;;4859423;29;20044;-59
2022/06/18 10:43:54;;;;;;;18.10;5.30;;;;;;;;;;4861333;29;20037;-59
2022/06/18 10:46:21;;;;;;;14.68;5.10;;;;;;;;;;4858403;29;20105;-59
2022/06/18 10:48:51;;;;;;;12.48;5.05;;;;;;;;;;4855792;29;20033;-59
2022/06/18 10:51:22;;;;;;;11.27;4.85;;;;;;;;;;4858733;29;20126;-59
2022/06/18 10:53:52;;;;;;;12.88;4.95;;;;;;;;;;4859922;29;20034;-58
2022/06/18 10:56:48;;;;;;;14.63;5.18;;;;;;;;;;4859866;29;20037;-59
2022/06/18 10:59:13;;;;;;;14.73;4.90;;;;;;;;;;4857149;29;20041;-59
2022/06/18 11:01:45;;;;;;;15.95;4.90;;;;;;;;;;4859348;29;20132;-59
2022/06/18 11:04:29;;;;;;;16.05;4.38;;;;;;;;;;4859470;29;20033;-59
2022/06/18 11:07:02;;;;;;;16.50;4.90;;;;;;;;;;4860292;29;20037;-59
2022/06/18 11:09:50;;;;;;;16.08;4.90;;;;;;;;;;4858585;29;20372;-60
2022/06/18 11:12:27;;;;;;;12.05;5.35;;;;;;;;;;4857121;29;20089;-58
2022/06/18 11:14:53;;;;;;;12.60;4.90;;;;;;;;;;4859849;29;20094;-59
2022/06/18 11:17:43;;;;;;;10.52;4.38;;;;;;;;;;4858621;29;20044;-59
2022/06/18 11:20:23;;;;;;;;;;;;;;;;;;4855812;29;20387;-58
2022/06/18 11:23:11;;;;;;;;;;;;;;;;;;4860551;29;19939;-58
2022/06/18 11:25:39;;;;;;;14.30;4.22;;;;;;;;;;4856588;29;20400;-59
2022/06/18 11:28:39;;;;;;;15.77;4.63;;;;;;;;;;4848737;29;20038;-58
2022/06/18 11:31:06;;;;;;;12.80;4.70;;;;;;;;;;4860079;29;20399;-59
2022/06/18 11:33:41;;;;;;;16.25;4.45;;;;;;;;;;4851921;29;20871;-59
2022/06/18 11:36:11;;;;;;;13.55;5.00;;;;;;;;;;4859623;29;20037;-59
2022/06/18 11:38:38;;;;;;;12.75;4.72;;;;;;;;;;4858894;29;20041;-59
2022/06/18 11:41:32;;;;;;;14.95;4.95;;;;;;;;;;4859057;29;20041;-59
2022/06/18 11:44:04;;;;;;;17.48;4.97;;;;;;;;;;4854344;29;20085;-59
2022/06/18 11:46:41;;;;;;;17.20;4.53;;;;;;;;;;4857879;29;20052;-58
2022/06/18 11:49:07;;;;;;;13.85;4.20;;;;;;;;;;4858643;29;20116;-59
2022/06/18 11:51:38;;;;;;;14.23;3.83;;;;;;;;;;4855727;29;20205;-60
2022/06/18 11:54:03;;;;;;;12.00;4.18;;;;;;;;;;4859444;29;20066;-59
2022/06/18 11:56:47;;;;;;;12.65;4.45;;;;;;;;;;4857417;29;20089;-59
2022/06/18 11:59:37;;;;;;;10.50;3.95;;;;;;;;;;4860131;29;20036;-59
2022/06/18 12:02:21;;;;;;;;;;;;;;;;;;4851086;29;20061;-59
2022/06/18 12:04:55;;;;;;;14.70;4.15;;;;;;;;;;4858921;29;20002;-59
2022/06/18 12:07:38;;;;;;;14.90;5.13;;;;;;;;;;4855785;29;20124;-59
2022/06/18 12:10:04;;;;;;;19.50;4.20;;;;;;;;;;4859351;29;20507;-59
2022/06/18 12:13:05;;;;;;;14.50;3.75;;;;;;;;;;4855900;29;20045;-59
2022/06/18 12:15:47;;;;;;;13.07;3.97;;;;;;;;;;4817839;29;20523;-59
2022/06/18 12:18:19;;;;;;;8.90;3.58;;;;;;;;;;4854514;29;20049;-59
2022/06/18 12:20:48;;;;;;;14.27;4.40;;;;;;;;;;4858070;29;20042;-58
2022/06/18 12:23:25;;;;;;;13.98;3.95;;;;;;;;;;4861762;29;20443;-59
2022/06/18 12:26:07;;;;;;;18.52;4.00;;;;;;;;;;4852386;29;20096;-59
2022/06/18 12:29:07;;;;;;;14.30;4.03;;;;;;;;;;4856094;29;20383;-60
2022/06/18 12:31:38;;;;;;;;;;;;;;;;;;4844625;29;20045;-59
2022/06/18 12:34:29;;;;;;;11.90;3.65;;;;;;;;;;4856341;29;20357;-59
2022/06/18 12:37:12;;;;;;;14.43;3.90;;;;;;;;;;4857209;29;20504;-59
2022/06/18 12:39:54;;;;;;;14.77;3.45;;;;;;;;;;4855617;29;20026;-60
2022/06/18 12:42:27;;;;;;;15.18;3.80;;;;;;;;;;4856635;29;20081;-64
2022/06/18 12:44:57;;;;;;;14.23;3.72;;;;;;;;;;4856986;29;20033;-65
2022/06/18 12:47:31;;;;;;;15.48;3.95;;;;;;;;;;4857484;29;20078;-64
2022/06/18 12:50:10;;;;;;;16.45;3.50;;;;;;;;;;4859342;29;20034;-65
2022/06/18 12:53:20;;;;;;;13.10;3.40;;;;;;;;;;4856177;29;20479;-66
2022/06/18 12:56:11;;;;;;;19.73;3.80;;;;;;;;;;4840717;29;20117;-67
2022/06/18 12:58:53;;;;;;;18.23;4.07;;;;;;;;;;4840148;29;20033;-66
2022/06/18 13:01:44;;;;;;;17.55;3.75;;;;;;;;;;4837296;29;20392;-65
2022/06/18 13:04:10;;;;;;;15.63;3.50;;;;;;;;;;4862985;29;20052;-67
2022/06/18 13:06:51;;;;;;;15.95;3.55;;;;;;;;;;4862074;29;20037;-67
2022/06/18 13:09:29;;;;;;;16.52;3.80;;;;;;;;;;4861739;29;20033;-66
2022/06/18 13:12:13;;;;;;;20.02;3.60;;;;;;;;;;4863091;29;20120;-66
2022/06/18 13:14:58;;;;;;;27.67;4.00;;;;;;;;;;4858989;29;20092;-59
2022/06/18 13:17:31;;;;;;;13.88;3.75;;;;;;;;;;4860558;29;20053;-59
2022/06/18 13:20:08;;;;;;;13.25;3.65;;;;;;;;;;4874005;29;20033;-59
2022/06/18 13:22:33;;;;;;;14.60;3.90;;;;;;;;;;4863983;29;20120;-57
2022/06/18 13:28:16;;;;;;;12.05;3.88;;;;;;;;;;4861892;29;20543;-58
2022/06/18 13:31:15;;;;;;;11.00;3.58;;;;;;;;;;4861605;29;20774;-58
2022/06/18 13:33:48;;;;;;;18.95;4.47;;;;;;;;;;4860532;29;20041;-57
2022/06/18 13:36:31;;;;;;;13.95;4.00;;;;;;;;;;4881204;29;20089;-56
2022/06/18 13:39:07;;;;;;;14.35;4.00;;;;;;;;;;4874861;29;20033;-57
2022/06/18 13:41:33;;;;;;;14.93;3.83;;;;;;;;;;4861579;29;20033;-56
2022/06/18 13:44:03;;;;;;;11.15;3.92;;;;;;;;;;4862187;29;20059;-57
2022/06/18 13:46:56;;;;;;;15.73;4.05;;;;;;;;;;4861552;29;20045;-58
2022/06/18 13:49:28;;;;;;;13.55;3.80;;;;;;;;;;4859765;29;20113;-60
2022/06/18 13:52:01;;;;;;;11.77;4.45;;;;;;;;;;4859000;29;20066;-56
2022/06/18 13:54:48;;;;;;;14.00;4.53;;;;;;;;;;4861097;29;20029;-58
2022/06/18 13:57:17;;;;;;;11.20;3.83;;;;;;;;;;4861928;29;20115;-58
2022/06/18 13:59:53;;;;;;;14.63;4.38;;;;;;;;;;4861140;29;20075;-59
2022/06/18 14:02:24;;;;;;;13.45;3.97;;;;;;;;;;4861328;29;20052;-59
2022/06/18 14:05:01;;;;;;;12.43;4.07;;;;;;;;;;4861523;29;20120;-59
2022/06/18 14:07:29;;;;;;;14.23;3.83;;;;;;;;;;4861734;29;20100;-59
2022/06/18 14:09:55;;;;;;;12.68;4.75;;;;;;;;;;4861167;29;20037;-58
2022/06/18 14:12:44;;;;;;;16.73;4.35;;;;;;;;;;4853058;29;20048;-59
2022/06/18 14:15:13;;;;;;;14.85;4.10;;;;;;;;;;4860676;29;20117;-59
2022/06/18 14:17:46;;;;;;;18.65;4.35;;;;;;;;;;4858082;29;20050;-58
2022/06/18 14:20:33;;;;;;;16.95;4.07;;;;;;;;;;4854751;29;20033;-59
2022/06/18 14:23:24;;;;;;;12.90;4.18;;;;;;;;;;4859324;29;20037;-59
2022/06/18 14:25:58;;;;;;;16.27;4.20;;;;;;;;;;4842401;29;20049;-60
2022/06/18 14:28:28;;;;;;;14.20;3.95;;;;;;;;;;4859901;29;20121;-60
2022/06/18 14:31:11;;;;;;;15.13;3.90;;;;;;;;;;4875368;29;20029;-59
2022/06/18 14:33:55;;;;;;;14.18;4.20;;;;;;;;;;4847767;29;20451;-59
2022/06/18 14:36:25;;;;;;;14.38;4.20;;;;;;;;;;4859428;29;20475;-58
2022/06/18 14:38:52;;;;;;;;;;;;;;;;;;4860984;29;20502;-58
2022/06/18 14:41:35;;;;;;;13.52;3.67;;;;;;;;;;4860249;29;19912;-59
2022/06/18 14:44:12;;;;;;;15.77;4.25;;;;;;;;;;4860936;29;20436;-59
2022/06/18 14:46:43;;;;;;;12.85;4.10;;;;;;;;;;4859703;29;20044;-59
2022/06/18 14:49:29;;;;;;;15.43;3.90;;;;;;;;;;4859648;29;20033;-59
2022/06/18 14:52:27;;;;;;;13.90;3.70;;;;;;;;;;4858096;29;20116;-58
2022/06/18 14:55:08;;;;;;;14.05;3.92;;;;;;;;;;4802802;29;20503;-59
2022/06/18 14:57:52;;;;;;;11.63;3.92;;;;;;;;;;4859908;29;20044;-57
2022/06/18 15:00:23;;;;;;;16.75;4.20;;;;;;;;;;4860106;29;20044;-58
2022/06/18 15:02:59;;;;;;;14.38;4.07;;;;;;;;;;4859914;29;20464;-59
2022/06/18 15:05:29;;;;;;;15.52;4.05;;;;;;;;;;4857828;29;20555;-59
2022/06/18 15:07:54;;;;;;;16.30;3.80;;;;;;;;;;4860459;29;20030;-59
2022/06/18 15:10:23;;;;;;;11.77;4.18;;;;;;;;;;4856570;29;20090;-59
2022/06/18 15:12:50;;;;;;;16.70;3.90;;;;;;;;;;4859269;29;20048;-58
2022/06/18 15:15:44;;;;;;;15.35;3.95;;;;;;;;;;4857594;29;20041;-60
2022/06/18 15:18:54;;;;;;;16.10;4.25;;;;;;;;;;4857287;29;20047;-58
2022/06/18 15:24:01;;;;;;;14.02;4.50;;;;;;;;;;4857180;29;20060;-69
2022/06/18 15:26:31;;;;;;;11.90;3.80;;;;;;;;;;4869184;29;20437;-68
2022/06/18 15:29:05;;;;;;;13.35;3.83;;;;;;;;;;4843182;29;20038;-69
2022/06/18 15:31:37;;;;;;;16.13;3.97;;;;;;;;;;4841134;29;20062;-69